Time;durP1;ratioP1;P1;durP2;ratioP2;P2;SDS_P1;SDS_P2;PMS_P1;PMS_P2;Temp;Humidity;BMP_temperature;BMP_pressure;BME280_temperature;BME280_humidity;BME280_pressure;Samples;Min_cycle;Max_cycle;Signal;HPM_P1;HPM_P2
2021/07/28 00:02:35;;;;;;;;;;;19.40;99.90;;;;;;5078043;28;20052;-59
2021/07/28 00:05:24;;;;;;;;;;;19.30;99.90;;;;;;5087654;28;20000;-59
2021/07/28 00:08:12;;;;;;;;;;;19.20;99.90;;;;;;5087423;28;19965;-59
2021/07/28 00:11:00;;;;;;;;;;;19.00;99.90;;;;;;5090667;28;19924;-59
2021/07/28 00:13:49;;;;;;;;;;;18.90;99.90;;;;;;5092976;28;19936;-59
2021/07/28 00:16:37;;;;;;;;;;;18.80;99.90;;;;;;5083469;28;19928;-59
2021/07/28 00:19:30;;;;;;;;;;;18.70;99.90;;;;;;5083339;28;19962;-59
2021/07/28 00:25:26;;;;;;;;;;;18.60;99.90;;;;;;5088806;28;20340;-59
2021/07/28 00:28:14;;;;;;;;;;;18.50;99.90;;;;;;5087821;28;20367;-59
2021/07/28 00:31:02;;;;;;;;;;;18.50;99.90;;;;;;5086299;28;20031;-59
2021/07/28 00:33:53;;;;;;;;;;;18.50;99.90;;;;;;5086874;28;20271;-59
2021/07/28 00:36:44;;;;;;;;;;;18.50;99.90;;;;;;5086375;28;19955;-60
2021/07/28 00:39:57;;;;;;;;;;;18.60;99.90;;;;;;5089311;28;20000;-59
2021/07/28 00:42:48;;;;;;;;;;;18.60;99.90;;;;;;5088845;28;19950;-59
2021/07/28 00:45:40;;;;;;;;;;;18.60;99.90;;;;;;5079294;28;21561;-59
2021/07/28 00:48:53;;;;;;;;;;;18.70;99.90;;;;;;5086460;28;20354;-59
2021/07/28 00:51:43;;;;;;;;;;;18.70;99.90;;;;;;5086272;28;19977;-59
2021/07/28 00:54:32;;;;;;;;;;;19.00;99.90;;;;;;5085565;28;19924;-59
2021/07/28 00:57:21;;;;;;;;;;;19.10;99.90;;;;;;5084003;28;20391;-60
2021/07/28 01:00:10;;;;;;;;;;;19.30;99.90;;;;;;5082000;28;20403;-58
2021/07/28 01:02:59;;;;;;;;;;;19.40;99.90;;;;;;5063899;28;19996;-59
2021/07/28 01:05:48;;;;;;;;;;;19.40;99.90;;;;;;5062955;28;20338;-59
2021/07/28 01:08:38;;;;;;;;;;;19.40;99.90;;;;;;5062223;28;20041;-59
2021/07/28 01:11:27;;;;;;;;;;;19.50;99.90;;;;;;5064370;28;19945;-61
2021/07/28 01:14:17;;;;;;;;;;;19.50;99.90;;;;;;5068662;28;21427;-59
2021/07/28 01:17:06;;;;;;;;;;;19.50;99.90;;;;;;5058235;28;19959;-59
2021/07/28 01:19:58;;;;;;;;;;;19.50;99.90;;;;;;5067332;28;19931;-59
2021/07/28 01:22:48;;;;;;;;;;;19.50;99.90;;;;;;5064634;28;19932;-60
2021/07/28 01:25:38;;;;;;;;;;;19.50;99.90;;;;;;5060526;28;20364;-59
2021/07/28 01:28:27;;;;;;;;;;;19.40;99.90;;;;;;5062474;28;19933;-59
2021/07/28 01:31:40;;;;;;;;;;;19.40;99.90;;;;;;5061096;28;19932;-59
2021/07/28 01:34:29;;;;;;;;;;;19.40;99.90;;;;;;5057044;28;19986;-59
2021/07/28 01:37:19;;;;;;;;;;;19.40;99.90;;;;;;5068619;28;20392;-60
2021/07/28 01:40:08;;;;;;;;;;;19.40;99.90;;;;;;5080895;28;20312;-59
2021/07/28 01:42:58;;;;;;;;;;;19.30;99.90;;;;;;5082983;28;19924;-59
2021/07/28 01:45:46;;;;;;;;;;;19.40;99.90;;;;;;5079984;28;19954;-58
2021/07/28 01:48:38;;;;;;;;;;;19.30;99.90;;;;;;5084732;28;19924;-59
2021/07/28 01:51:26;;;;;;;;;;;19.30;99.90;;;;;;5086098;28;19924;-59
2021/07/28 01:54:15;;;;;;;;;;;19.30;99.90;;;;;;5087975;28;19924;-59
2021/07/28 01:57:07;;;;;;;;;;;19.30;99.90;;;;;;5080936;28;20435;-59
2021/07/28 02:00:00;;;;;;;;;;;19.30;99.90;;;;;;5087089;28;19936;-62
2021/07/28 02:02:55;;;;;;;;;;;19.30;99.90;;;;;;5081208;28;19986;-59
2021/07/28 02:05:44;;;;;;;;;;;19.30;99.90;;;;;;5071226;28;19932;-59
2021/07/28 02:08:33;;;;;;;;;;;19.30;99.90;;;;;;5084705;28;19931;-59
2021/07/28 02:11:22;;;;;;;;;;;19.20;99.90;;;;;;5081027;28;19954;-59
2021/07/28 02:14:12;;;;;;;;;;;19.20;99.90;;;;;;5083032;28;19924;-59
2021/07/28 02:17:02;;;;;;;;;;;19.10;99.90;;;;;;5078028;28;20356;-59
2021/07/28 02:19:51;;;;;;;;;;;19.10;99.90;;;;;;5089377;28;19943;-60
2021/07/28 02:22:40;;;;;;;;;;;19.00;99.90;;;;;;5084518;28;19925;-60
2021/07/28 02:25:33;;;;;;;;;;;19.00;99.90;;;;;;5088991;28;19928;-59
2021/07/28 02:28:22;;;;;;;;;;;19.00;99.90;;;;;;5081780;28;19935;-59
2021/07/28 02:31:11;;;;;;;;;;;18.90;99.90;;;;;;5078269;28;19924;-59
2021/07/28 02:34:03;;;;;;;;;;;18.90;99.90;;;;;;5087065;28;20010;-59
2021/07/28 02:36:51;;;;;;;;;;;18.90;99.90;;;;;;5093032;28;19950;-59
2021/07/28 02:39:40;;;;;;;;;;;18.90;99.90;;;;;;5093531;28;19924;-59
2021/07/28 02:42:29;;;;;;;;;;;18.90;99.90;;;;;;5105425;28;19931;-60
2021/07/28 02:45:18;;;;;;;;;;;18.90;99.90;;;;;;5096109;28;19979;-59
2021/07/28 02:48:07;;;;;;;;;;;18.90;99.90;;;;;;5103600;28;19924;-59
2021/07/28 02:51:00;;;;;;;;;;;18.90;99.90;;;;;;5103066;28;20008;-60
2021/07/28 02:53:48;;;;;;;;;;;18.90;99.90;;;;;;5102657;28;19928;-60
2021/07/28 02:56:37;;;;;;;;;;;18.90;99.90;;;;;;5099268;28;19923;-61
2021/07/28 02:59:28;;;;;;;;;;;18.90;99.90;;;;;;5099570;28;19924;-60
2021/07/28 03:02:42;;;;;;;;;;;18.90;99.90;;;;;;5101741;28;19970;-59
2021/07/28 03:05:31;;;;;;;;;;;18.80;99.90;;;;;;5108301;28;19924;-59
2021/07/28 03:08:22;;;;;;;;;;;18.80;99.90;;;;;;5111065;28;19932;-60
2021/07/28 03:11:10;;;;;;;;;;;18.80;99.90;;;;;;5103652;28;19934;-60
2021/07/28 03:14:00;;;;;;;;;;;18.70;99.90;;;;;;5108418;28;19919;-59
2021/07/28 03:16:49;;;;;;;;;;;18.60;99.90;;;;;;5098515;28;19958;-61
2021/07/28 03:19:37;;;;;;;;;;;18.50;99.90;;;;;;5101984;28;20270;-61
2021/07/28 03:22:27;;;;;;;;;;;18.50;99.90;;;;;;5114183;28;19928;-60
2021/07/28 03:25:17;;;;;;;;;;;18.50;99.90;;;;;;5109020;28;19912;-59
2021/07/28 03:28:08;;;;;;;;;;;18.50;99.90;;;;;;5082196;28;20012;-60
2021/07/28 03:31:00;;;;;;;;;;;18.40;99.90;;;;;;5108515;28;19929;-59
2021/07/28 03:33:49;;;;;;;;;;;18.40;99.90;;;;;;5098437;28;19928;-60
2021/07/28 03:36:38;;;;;;;;;;;18.40;99.90;;;;;;5109029;28;19925;-58
2021/07/28 03:39:28;;;;;;;;;;;18.40;99.90;;;;;;5089434;28;19927;-61
2021/07/28 03:42:44;;;;;;;;;;;18.30;99.90;;;;;;5106300;28;19920;-61
2021/07/28 03:45:32;;;;;;;;;;;18.30;99.90;;;;;;5095362;28;19928;-59
2021/07/28 03:48:21;;;;;;;;;;;18.30;99.90;;;;;;5085815;28;19924;-59
2021/07/28 03:51:12;;;;;;;;;;;18.20;99.90;;;;;;5084314;28;19935;-59
2021/07/28 03:54:01;;;;;;;;;;;18.10;99.90;;;;;;5083937;28;19924;-59
2021/07/28 03:56:50;;;;;;;;;;;18.10;99.90;;;;;;5081342;28;20256;-59
2021/07/28 03:59:42;;;;;;;;;;;18.00;99.90;;;;;;5081214;28;19928;-59
2021/07/28 04:02:31;;;;;;;;;;;17.90;99.90;;;;;;5072582;28;19986;-59
2021/07/28 04:05:20;;;;;;;;;;;17.90;99.90;;;;;;5084321;28;20384;-59
2021/07/28 04:08:11;;;;;;;;;;;17.90;99.90;;;;;;5084997;28;20376;-59
2021/07/28 04:11:02;;;;;;;;;;;17.90;99.90;;;;;;5079487;28;19923;-59
2021/07/28 04:13:51;;;;;;;;;;;17.80;99.90;;;;;;5080823;28;19924;-60
2021/07/28 04:16:41;;;;;;;;;;;17.80;99.90;;;;;;5075391;28;19932;-59
2021/07/28 04:19:34;;;;;;;;;;;17.80;99.90;;;;;;5076371;28;20663;-59
2021/07/28 04:22:28;;;;;;;;;;;17.80;99.90;;;;;;5079329;28;19935;-59
2021/07/28 04:25:18;;;;;;;;;;;17.80;99.90;;;;;;5079399;28;19939;-59
2021/07/28 04:28:09;;;;;;;;;;;17.70;99.90;;;;;;5085399;28;19932;-59
2021/07/28 04:30:57;;;;;;;;;;;17.70;99.90;;;;;;5076606;28;19932;-59
2021/07/28 04:33:48;;;;;;;;;;;17.60;99.90;;;;;;5087528;28;19928;-59
2021/07/28 04:36:40;;;;;;;;;;;17.70;99.90;;;;;;5084478;28;19931;-60
2021/07/28 04:39:31;;;;;;;;;;;17.70;99.90;;;;;;5078593;28;20674;-59
2021/07/28 04:42:19;;;;;;;;;;;17.70;99.90;;;;;;5089317;28;19932;-60
2021/07/28 04:45:09;;;;;;;;;;;17.70;99.90;;;;;;5088145;28;19928;-59
2021/07/28 04:47:59;;;;;;;;;;;17.80;99.90;;;;;;5089871;28;20368;-59
2021/07/28 04:50:49;;;;;;;;;;;17.80;99.90;;;;;;5087344;28;19935;-60
2021/07/28 04:56:51;;;;;;;;;;;17.80;99.90;;;;;;5089931;28;19928;-58
2021/07/28 04:59:41;;;;;;;;;;;17.70;99.90;;;;;;5089273;28;19924;-59
2021/07/28 05:02:30;;;;;;;;;;;17.70;99.90;;;;;;5085769;28;20075;-60
2021/07/28 05:05:19;;;;;;;;;;;17.70;99.90;;;;;;5086252;28;19924;-59
2021/07/28 05:08:11;;;;;;;;;;;17.90;99.90;;;;;;5090444;28;19930;-59
2021/07/28 05:11:02;;;;;;;;;;;17.90;99.90;;;;;;5083940;28;19931;-58
2021/07/28 05:13:52;;;;;;;;;;;18.00;99.90;;;;;;5077248;28;20264;-59
2021/07/28 05:16:44;;;;;;;;;;;18.00;99.90;;;;;;5078832;28;19931;-59
2021/07/28 05:19:32;;;;;;;;;;;18.00;99.90;;;;;;5086344;28;20583;-59
2021/07/28 05:22:46;;;;;;;;;;;18.10;99.90;;;;;;5087616;28;20366;-59
2021/07/28 05:25:37;;;;;;;;;;;18.00;99.90;;;;;;5085962;28;19931;-59
2021/07/28 05:28:29;;;;;;;;;;;18.10;99.90;;;;;;5091211;28;19932;-60
2021/07/28 05:31:19;;;;;;;;;;;18.10;99.90;;;;;;5099859;28;19924;-59
2021/07/28 05:34:33;;;;;;;;;;;18.10;99.90;;;;;;5086840;28;19977;-59
2021/07/28 05:37:22;;;;;;;;;;;18.10;99.90;;;;;;5088335;28;19993;-62
2021/07/28 05:40:12;;;;;;;;;;;18.10;99.90;;;;;;5084557;28;19924;-59
2021/07/28 05:43:02;;;;;;;;;;;18.20;99.90;;;;;;5087750;28;19935;-59
2021/07/28 05:46:16;;;;;;;;;;;18.40;99.90;;;;;;5077210;28;20016;-59
2021/07/28 05:49:07;;;;;;;;;;;18.40;99.90;;;;;;5089417;28;19930;-59
2021/07/28 05:51:58;;;;;;;;;;;18.30;99.90;;;;;;5087115;28;19931;-59
2021/07/28 05:54:46;;;;;;;;;;;18.30;99.90;;;;;;5084200;28;19934;-58
2021/07/28 05:57:35;;;;;;;;;;;18.20;99.90;;;;;;5088132;28;19925;-59
2021/07/28 06:00:25;;;;;;;;;;;18.30;99.90;;;;;;5085039;28;19935;-59
2021/07/28 06:03:17;;;;;;;;;;;18.30;99.90;;;;;;5087525;28;20329;-59
2021/07/28 06:06:06;;;;;;;;;;;18.40;99.90;;;;;;5086177;28;19924;-60
2021/07/28 06:08:58;;;;;;;;;;;18.50;99.90;;;;;;5083774;28;19993;-59
2021/07/28 06:11:46;;;;;;;;;;;18.80;99.90;;;;;;5083769;28;20354;-60
2021/07/28 06:14:35;;;;;;;;;;;18.70;99.90;;;;;;5081950;28;19925;-59
2021/07/28 06:17:27;;;;;;;;;;;18.70;99.90;;;;;;5083136;28;19936;-59
2021/07/28 06:20:19;;;;;;;;;;;18.80;99.90;;;;;;5081544;28;19924;-59
2021/07/28 06:23:08;;;;;;;;;;;18.80;99.90;;;;;;5086546;28;19971;-60
2021/07/28 06:25:57;;;;;;;;;;;18.90;99.90;;;;;;5078845;28;19928;-62
2021/07/28 06:28:46;;;;;;;;;;;18.90;99.90;;;;;;5083640;28;19928;-59
2021/07/28 06:31:34;;;;;;;;;;;19.30;99.90;;;;;;5081227;28;19950;-62
2021/07/28 06:34:27;;;;;;;;;;;19.80;99.90;;;;;;5085843;28;20284;-59
2021/07/28 06:37:16;;;;;;;;;;;19.90;99.90;;;;;;5085023;28;20014;-59
2021/07/28 06:40:05;;;;;;;;;;;19.60;99.90;;;;;;5088055;28;19933;-59
2021/07/28 06:42:53;;;;;;;;;;;19.40;99.90;;;;;;5087814;28;20275;-60
2021/07/28 06:45:42;;;;;;;;;;;19.10;99.90;;;;;;5085691;28;19924;-59
2021/07/28 06:48:38;;;;;;;;;;;19.20;99.90;;;;;;5089891;28;19928;-59
2021/07/28 06:51:31;;;;;;;;;;;19.40;99.90;;;;;;5091337;28;20355;-59
2021/07/28 06:54:20;;;;;;;;;;;19.90;99.90;;;;;;5088793;28;19931;-59
2021/07/28 06:57:09;;;;;;;;;;;19.90;99.90;;;;;;5089582;28;20435;-59
2021/07/28 06:59:59;;;;;;;;;;;19.90;99.90;;;;;;5087228;28;19935;-59
2021/07/28 07:02:49;;;;;;;;;;;19.50;99.90;;;;;;5092405;28;19928;-59
2021/07/28 07:05:39;;;;;;;;;;;19.40;99.90;;;;;;5083192;28;19925;-59
2021/07/28 07:08:29;;;;;;;;;;;19.30;99.90;;;;;;5072079;28;19925;-59
2021/07/28 07:11:18;;;;;;;;;;;19.40;99.90;;;;;;5083190;28;19928;-62
2021/07/28 07:14:07;;;;;;;;;;;19.50;99.90;;;;;;5086338;28;19928;-59
2021/07/28 07:16:56;;;;;;;;;;;19.50;99.90;;;;;;5078084;28;19924;-60
2021/07/28 07:19:44;;;;;;;;;;;19.70;99.90;;;;;;5083650;28;19928;-59
2021/07/28 07:22:33;;;;;;;;;;;19.80;99.90;;;;;;5086719;28;19935;-59
2021/07/28 07:25:23;;;;;;;;;;;20.10;99.90;;;;;;5088878;28;19932;-59
2021/07/28 07:28:12;;;;;;;;;;;20.90;99.90;;;;;;5088256;28;19931;-59
2021/07/28 07:31:01;;;;;;;;;;;21.60;99.90;;;;;;5082606;28;19928;-58
2021/07/28 07:33:50;;;;;;;;;;;21.00;99.90;;;;;;5075419;28;20360;-60
2021/07/28 07:36:39;;;;;;;;;;;20.60;99.90;;;;;;5082241;28;20302;-59
2021/07/28 07:39:28;;;;;;;;;;;20.20;99.90;;;;;;5066374;28;19924;-59
2021/07/28 07:42:18;;;;;;;;;;;20.20;99.90;;;;;;5087469;28;19924;-60
2021/07/28 07:45:06;;;;;;;;;;;20.60;99.90;;;;;;5076337;28;19924;-59
2021/07/28 07:47:55;;;;;;;;;;;21.30;99.90;;;;;;5082333;28;19925;-59
2021/07/28 07:50:46;;;;;;;;;;;21.80;99.90;;;;;;5080541;28;19928;-60
2021/07/28 07:53:36;;;;;;;;;;;22.00;99.90;;;;;;5087503;28;20012;-62
2021/07/28 07:56:28;;;;;;;;;;;21.70;99.90;;;;;;5083307;28;19925;-60
2021/07/28 07:59:19;;;;;;;;;;;21.80;99.90;;;;;;5090954;28;19924;-59
2021/07/28 08:02:08;;;;;;;;;;;21.70;99.90;;;;;;5082425;28;19929;-59
2021/07/28 08:04:57;;;;;;;;;;;21.40;99.90;;;;;;5086308;28;19924;-61
2021/07/28 08:07:46;;;;;;;;;;;21.20;99.90;;;;;;5080656;28;19954;-60
2021/07/28 08:10:34;;;;;;;;;;;21.40;99.90;;;;;;5086933;28;19968;-59
2021/07/28 08:13:33;;;;;;;;;;;22.00;99.90;;;;;;5091597;28;19928;-60
2021/07/28 08:16:24;;;;;;;;;;;22.00;99.90;;;;;;5080911;28;19981;-62
2021/07/28 08:19:12;;;;;;;;;;;22.10;99.90;;;;;;5092300;28;20081;-59
2021/07/28 08:22:07;;;;;;;;;;;22.00;99.90;;;;;;5086333;28;20448;-59
2021/07/28 08:24:57;;;;;;;;;;;22.30;99.90;;;;;;5077951;28;19946;-59
2021/07/28 08:27:46;;;;;;;;;;;22.30;99.90;;;;;;5093351;28;19928;-60
2021/07/28 08:30:36;;;;;;;;;;;22.50;99.90;;;;;;5082752;28;19950;-59
2021/07/28 08:33:26;;;;;;;;;;;22.30;99.90;;;;;;5090321;28;19931;-59
2021/07/28 08:36:15;;;;;;;;;;;22.60;99.90;;;;;;5090165;28;20298;-60
2021/07/28 08:39:04;;;;;;;;;;;22.90;99.90;;;;;;5084722;28;20004;-60
2021/07/28 08:41:54;;;;;;;;;;;22.80;99.90;;;;;;5081768;28;19931;-60
2021/07/28 08:44:42;;;;;;;;;;;23.10;99.90;;;;;;5084634;28;19928;-59
2021/07/28 08:47:32;;;;;;;;;;;22.10;99.90;;;;;;5082373;28;20066;-59
2021/07/28 08:50:22;;;;;;;;;;;22.40;99.90;;;;;;5088684;28;19931;-61
2021/07/28 08:53:11;;;;;;;;;;;22.50;99.90;;;;;;5087220;28;20027;-60
2021/07/28 08:56:02;;;;;;;;;;;22.30;99.90;;;;;;5088947;28;20244;-59
2021/07/28 08:58:54;;;;;;;;;;;22.30;99.90;;;;;;5085790;28;20291;-59
2021/07/28 09:01:42;;;;;;;;;;;22.00;99.90;;;;;;5082080;28;19924;-60
2021/07/28 09:04:32;;;;;;;;;;;22.20;99.90;;;;;;5084475;28;20003;-59
2021/07/28 09:07:23;;;;;;;;;;;21.50;99.90;;;;;;5082025;28;19924;-60
2021/07/28 09:10:13;;;;;;;;;;;21.20;99.90;;;;;;5087243;28;19948;-59
2021/07/28 09:13:02;;;;;;;;;;;21.40;99.90;;;;;;5082595;28;19962;-60
2021/07/28 09:15:51;;;;;;;;;;;21.30;99.90;;;;;;5081660;28;20372;-60
2021/07/28 09:18:43;;;;;;;;;;;21.30;99.90;;;;;;5080513;28;20451;-59
2021/07/28 09:21:36;;;;;;;;;;;21.10;99.90;;;;;;5083129;28;19946;-61
2021/07/28 09:24:30;;;;;;;;;;;21.10;99.90;;;;;;5080287;28;20248;-60
2021/07/28 09:27:33;;;;;;;;;;;20.90;99.90;;;;;;5084196;28;20015;-60
2021/07/28 09:30:30;;;;;;;;;;;20.70;99.90;;;;;;5083130;28;19979;-59
2021/07/28 09:33:21;;;;;;;;;;;20.40;99.90;;;;;;5087842;28;19934;-60
2021/07/28 09:36:17;;;;;;;;;;;20.20;99.90;;;;;;5087855;28;20020;-62
2021/07/28 09:39:05;;;;;;;;;;;20.10;99.90;;;;;;5084239;28;19924;-60
2021/07/28 09:42:11;;;;;;;;;;;20.00;99.90;;;;;;5089891;28;20003;-62
2021/07/28 09:45:00;;;;;;;;;;;19.90;99.90;;;;;;5082675;28;19925;-59
2021/07/28 09:47:53;;;;;;;;;;;19.80;99.90;;;;;;5095367;28;19924;-59
2021/07/28 09:50:46;;;;;;;;;;;19.90;99.90;;;;;;5077627;28;19924;-62
2021/07/28 09:53:36;;;;;;;;;;;19.90;99.90;;;;;;5098911;28;19924;-60
2021/07/28 09:56:29;;;;;;;;;;;19.90;99.90;;;;;;5091907;28;19925;-62
2021/07/28 09:59:22;;;;;;;;;;;19.90;99.90;;;;;;5099816;28;19931;-59
2021/07/28 10:02:14;;;;;;;;;;;19.90;99.90;;;;;;5081421;28;19924;-60
2021/07/28 10:05:12;;;;;;;;;;;19.70;99.90;;;;;;5101924;28;19924;-59
2021/07/28 10:08:03;;;;;;;;;;;19.80;99.90;;;;;;5094083;28;19971;-60
2021/07/28 10:10:52;;;;;;;;;;;19.80;99.90;;;;;;5105862;28;19924;-60
2021/07/28 10:13:42;;;;;;;;;;;19.80;99.90;;;;;;5092671;28;19920;-60
2021/07/28 10:16:32;;;;;;;;;;;19.70;99.90;;;;;;5095904;28;20329;-59
2021/07/28 10:19:25;;;;;;;;;;;19.60;99.90;;;;;;5076105;28;19959;-59
2021/07/28 10:22:16;;;;;;;;;;;19.40;99.90;;;;;;5076738;28;19924;-59
2021/07/28 10:25:13;;;;;;;;;;;19.40;99.90;;;;;;5073823;28;20340;-59
2021/07/28 10:28:03;;;;;;;;;;;19.40;99.90;;;;;;5080087;28;19932;-59
2021/07/28 10:31:06;;;;;;;;;;;19.00;99.90;;;;;;5080734;28;20356;-62
2021/07/28 10:33:58;;;;;;;;;;;19.00;99.90;;;;;;5088762;28;19924;-59
2021/07/28 10:36:47;;;;;;;;;;;19.00;99.90;;;;;;5091115;28;19939;-59
2021/07/28 10:39:36;;;;;;;;;;;19.10;99.90;;;;;;5091046;28;19924;-60
2021/07/28 10:42:39;;;;;;;;;;;19.00;99.90;;;;;;5088100;28;20329;-59
2021/07/28 10:45:48;;;;;;;;;;;19.00;99.90;;;;;;5079150;28;19946;-59
2021/07/28 10:48:51;;;;;;;;;;;18.90;99.90;;;;;;5090100;28;19924;-59
2021/07/28 10:51:52;;;;;;;;;;;18.90;99.90;;;;;;5088224;28;19924;-61
2021/07/28 10:55:05;;;;;;;;;;;18.80;99.90;;;;;;5090018;28;20391;-60
2021/07/28 10:58:11;;;;;;;;;;;18.90;99.90;;;;;;5089534;28;19924;-59
2021/07/28 11:01:00;;;;;;;;;;;18.90;99.90;;;;;;5087570;28;19924;-59
2021/07/28 11:03:51;;;;;;;;;;;18.70;99.90;;;;;;5088489;28;19924;-59
2021/07/28 11:06:47;;;;;;;;;;;18.60;99.90;;;;;;5090487;28;20050;-59
2021/07/28 11:09:38;;;;;;;;;;;18.50;99.90;;;;;;5092676;28;20244;-59
2021/07/28 11:12:28;;;;;;;;;;;18.60;99.90;;;;;;5092122;28;19924;-62
2021/07/28 11:15:19;;;;;;;;;;;18.60;99.90;;;;;;5081654;28;19934;-63
2021/07/28 11:18:07;;;;;;;;;;;18.50;99.90;;;;;;5086082;28;19924;-62
2021/07/28 11:20:56;;;;;;;;;;;18.40;99.90;;;;;;5103085;28;19931;-61
2021/07/28 11:23:59;;;;;;;;;;;18.20;99.90;;;;;;5091299;28;19989;-60
2021/07/28 11:26:50;;;;;;;;;;;18.20;99.90;;;;;;5087750;28;19938;-60
2021/07/28 11:29:38;;;;;;;;;;;18.10;99.90;;;;;;5087031;28;19924;-62
2021/07/28 11:32:52;;;;;;;;;;;18.20;99.90;;;;;;5084071;28;19924;-61
2021/07/28 11:35:41;;;;;;;;;;;18.10;99.90;;;;;;5085260;28;19928;-60
2021/07/28 11:38:33;;;;;;;;;;;18.20;99.90;;;;;;5084621;28;19930;-60
2021/07/28 11:41:22;;;;;;;;;;;18.20;99.90;;;;;;5091025;28;20050;-60
2021/07/28 11:44:12;;;;;;;;;;;18.20;99.90;;;;;;5091697;28;19931;-60
2021/07/28 11:47:01;;;;;;;;;;;18.10;99.90;;;;;;5076238;28;20307;-60
2021/07/28 11:50:00;;;;;;;;;;;18.10;99.90;;;;;;5084196;28;20050;-59
2021/07/28 11:52:50;;;;;;;;;;;18.10;99.90;;;;;;5091396;28;19930;-61
2021/07/28 11:55:42;;;;;;;;;;;18.20;99.90;;;;;;5090394;28;20082;-59
2021/07/28 11:58:33;;;;;;;;;;;18.30;99.90;;;;;;5083422;28;20360;-59
2021/07/28 12:01:25;;;;;;;;;;;18.60;99.90;;;;;;5080381;28;19977;-63
2021/07/28 12:04:20;;;;;;;;;;;18.70;99.90;;;;;;5086711;28;19939;-59
2021/07/28 12:07:12;;;;;;;;;;;18.80;99.90;;;;;;5089709;28;19925;-59
2021/07/28 12:10:26;;;;;;;;;;;18.60;99.90;;;;;;5091119;28;19924;-59
2021/07/28 12:13:21;;;;;;;;;;;18.60;99.90;;;;;;5086265;28;19924;-59
2021/07/28 12:16:11;;;;;;;;;;;18.50;99.90;;;;;;5076758;28;19924;-59
2021/07/28 12:19:06;;;;;;;;;;;18.80;99.90;;;;;;5091897;28;19924;-59
2021/07/28 12:25:13;;;;;;;;;;;19.20;99.90;;;;;;5087721;28;20363;-59
2021/07/28 12:28:02;;;;;;;;;;;19.30;99.90;;;;;;5082226;28;19924;-59
2021/07/28 12:30:58;;;;;;;;;;;19.20;99.90;;;;;;5085561;28;20271;-60
2021/07/28 12:33:47;;;;;;;;;;;19.30;99.90;;;;;;5089597;28;19928;-59
2021/07/28 12:36:37;;;;;;;;;;;19.60;99.90;;;;;;5056889;28;19950;-60
2021/07/28 12:39:25;;;;;;;;;;;19.40;99.90;;;;;;5085618;28;19934;-61
2021/07/28 12:42:15;;;;;;;;;;;19.60;99.90;;;;;;5082551;28;19924;-62
2021/07/28 12:45:10;;;;;;;;;;;19.40;99.90;;;;;;5083359;28;19928;-59
2021/07/28 12:48:00;;;;;;;;;;;19.80;99.90;;;;;;5084259;28;20012;-59
2021/07/28 12:50:53;;;;;;;;;;;19.80;99.90;;;;;;5089018;28;19924;-59
2021/07/28 12:53:44;;;;;;;;;;;20.00;99.90;;;;;;5082397;28;19991;-59
2021/07/28 12:56:32;;;;;;;;;;;20.60;99.90;;;;;;5078627;28;19932;-59
2021/07/28 12:59:25;;;;;;;;;;;21.00;99.90;;;;;;5080678;28;19924;-60
2021/07/28 13:02:13;;;;;;;;;;;21.20;99.90;;;;;;5069659;28;19998;-60
2021/07/28 13:05:02;;;;;;;;;;;21.50;99.90;;;;;;5083916;28;19931;-59
2021/07/28 13:08:00;;;;;;;;;;;21.00;99.90;;;;;;5082655;28;19928;-59
2021/07/28 13:10:50;;;;;;;;;;;21.20;99.90;;;;;;5084533;28;19928;-59
2021/07/28 13:13:39;;;;;;;;;;;20.80;99.90;;;;;;5083829;28;20347;-60
2021/07/28 13:16:28;;;;;;;;;;;20.50;99.90;;;;;;5081079;28;19934;-60
2021/07/28 13:19:16;;;;;;;;;;;20.90;99.90;;;;;;5085469;28;19928;-59
2021/07/28 13:25:21;;;;;;;;;;;21.10;99.90;;;;;;5078567;28;20437;-60
2021/07/28 13:28:11;;;;;;;;;;;21.10;99.90;;;;;;5084434;28;20291;-59
2021/07/28 13:31:00;;;;;;;;;;;20.90;99.90;;;;;;5081844;28;19932;-59
2021/07/28 13:34:14;;;;;;;;;;;20.40;99.90;;;;;;5084936;28;19935;-59
2021/07/28 13:37:05;;;;;;;;;;;20.70;99.90;;;;;;5090991;28;19943;-59
2021/07/28 13:39:54;;;;;;;;;;;20.80;99.90;;;;;;5095443;28;19924;-60
2021/07/28 13:42:43;;;;;;;;;;;20.90;99.90;;;;;;5089168;28;19946;-59
2021/07/28 13:45:35;;;;;;;;;;;20.70;99.90;;;;;;5091569;28;20003;-59
2021/07/28 13:48:26;;;;;;;;;;;21.00;99.90;;;;;;5096978;28;19970;-59
2021/07/28 13:51:40;;;;;;;;;;;21.00;99.90;;;;;;5097448;28;19935;-59
2021/07/28 13:54:30;;;;;;;;;;;21.20;99.90;;;;;;5101434;28;19974;-59
2021/07/28 14:01:01;;;;;;;;;;;21.10;99.90;;;;;;5098716;28;19935;-59
2021/07/28 14:03:50;;;;;;;;;;;21.20;99.90;;;;;;5111332;28;19992;-60
2021/07/28 14:06:39;;;;;;;;;;;21.40;99.90;;;;;;5103994;28;19924;-59
2021/07/28 14:09:27;;;;;;;;;;;21.90;99.90;;;;;;5093950;28;19958;-61
2021/07/28 14:12:16;;;;;;;;;;;22.30;99.90;;;;;;5104209;28;19959;-59
2021/07/28 14:15:06;;;;;;;;;;;22.40;99.90;;;;;;5098727;28;20421;-60
2021/07/28 14:17:56;;;;;;;;;;;22.20;99.90;;;;;;5085675;28;20001;-60
2021/07/28 14:20:44;;;;;;;;;;;22.40;99.90;;;;;;5080570;28;19935;-60
2021/07/28 14:23:33;;;;;;;;;;;22.10;99.90;;;;;;5083353;28;19940;-60
2021/07/28 14:26:24;;;;;;;;;;;22.00;99.90;;;;;;5088117;28;19912;-60
2021/07/28 14:29:14;;;;;;;;;;;22.20;99.90;;;;;;5104570;28;19925;-59
2021/07/28 14:32:03;;;;;;;;;;;22.60;99.90;;;;;;5096632;28;19924;-60
2021/07/28 14:34:52;;;;;;;;;;;22.70;99.90;;;;;;5105031;28;19998;-59
2021/07/28 14:37:45;;;;;;;;;;;22.70;99.90;;;;;;5104262;28;19947;-60
2021/07/28 14:40:35;;;;;;;;;;;22.60;99.90;;;;;;5097541;28;19924;-62
2021/07/28 14:43:23;;;;;;;;;;;22.70;99.90;;;;;;5102232;28;19924;-60
2021/07/28 14:46:12;;;;;;;;;;;22.50;99.90;;;;;;5104248;28;19931;-60
2021/07/28 14:49:01;;;;;;;;;;;22.50;99.90;;;;;;5103880;28;19924;-60
2021/07/28 14:51:54;;;;;;;;;;;22.00;99.90;;;;;;5110351;28;19961;-61
2021/07/28 14:54:43;;;;;;;;;;;22.10;99.90;;;;;;5106737;28;19928;-59
2021/07/28 14:57:32;;;;;;;;;;;22.10;99.90;;;;;;5097472;28;19924;-60
2021/07/28 15:00:20;;;;;;;;;;;21.50;99.90;;;;;;5085661;28;19932;-59
2021/07/28 15:03:09;;;;;;;;;;;21.50;99.90;;;;;;5087372;28;19947;-60
2021/07/28 15:05:58;;;;;;;;;;;21.90;99.90;;;;;;5088792;28;19934;-59
2021/07/28 15:08:48;;;;;;;;;;;21.70;99.90;;;;;;5079404;28;19935;-62
2021/07/28 15:11:36;;;;;;;;;;;21.70;99.90;;;;;;5081432;28;19932;-60
2021/07/28 15:14:25;;;;;;;;;;;21.70;99.90;;;;;;5087600;28;19924;-60
2021/07/28 15:17:14;;;;;;;;;;;21.90;99.90;;;;;;5070994;28;19925;-59
2021/07/28 15:20:03;;;;;;;;;;;22.10;99.90;;;;;;5064062;28;19931;-61
2021/07/28 15:22:52;;;;;;;;;;;21.80;99.90;;;;;;5067448;28;20007;-59
2021/07/28 15:25:42;;;;;;;;;;;21.90;99.90;;;;;;5065817;28;19925;-59
2021/07/28 15:28:30;;;;;;;;;;;22.10;99.90;;;;;;5065537;28;19986;-59
2021/07/28 15:31:19;;;;;;;;;;;22.20;99.90;;;;;;5062607;28;20648;-60
2021/07/28 15:34:07;;;;;;;;;;;22.10;99.90;;;;;;5062660;28;19925;-60
2021/07/28 15:36:57;;;;;;;;;;;22.10;99.90;;;;;;5071496;28;19928;-60
2021/07/28 15:40:01;;;;;;;;;;;22.20;99.90;;;;;;5062580;28;19998;-59
2021/07/28 15:42:55;;;;;;;;;;;22.50;99.90;;;;;;5079337;28;19935;-60
2021/07/28 15:45:45;;;;;;;;;;;22.50;99.90;;;;;;5073105;28;19939;-60
2021/07/28 15:48:38;;;;;;;;;;;22.10;99.90;;;;;;5068367;28;20256;-63
2021/07/28 15:51:27;;;;;;;;;;;22.20;99.90;;;;;;5076487;28;19943;-59
2021/07/28 15:54:15;;;;;;;;;;;22.40;99.90;;;;;;5072145;28;19925;-59
2021/07/28 15:57:04;;;;;;;;;;;22.60;99.90;;;;;;5071233;28;19946;-59
2021/07/28 15:59:55;;;;;;;;;;;22.60;99.90;;;;;;5068623;28;19924;-62
2021/07/28 16:02:43;;;;;;;;;;;22.70;99.90;;;;;;5080104;28;19969;-60
2021/07/28 16:05:33;;;;;;;;;;;22.90;99.90;;;;;;5079258;28;19925;-62
2021/07/28 16:08:25;;;;;;;;;;;22.70;99.90;;;;;;5087131;28;20342;-59
2021/07/28 16:11:13;;;;;;;;;;;22.70;99.90;;;;;;5065400;28;19967;-60
2021/07/28 16:14:05;;;;;;;;;;;22.80;99.90;;;;;;5081888;28;20359;-59
2021/07/28 16:16:54;;;;;;;;;;;22.80;99.90;;;;;;5084701;28;19932;-59
2021/07/28 16:19:43;;;;;;;;;;;22.90;99.90;;;;;;5088212;28;19924;-61
2021/07/28 16:22:36;;;;;;;;;;;22.80;99.90;;;;;;5090185;28;20022;-59
2021/07/28 16:25:25;;;;;;;;;;;22.90;99.90;;;;;;5086802;28;19931;-60
2021/07/28 16:28:14;;;;;;;;;;;22.80;99.90;;;;;;5089142;28;19924;-59
2021/07/28 16:31:02;;;;;;;;;;;22.60;99.90;;;;;;5080622;28;20407;-61
2021/07/28 16:33:53;;;;;;;;;;;22.80;99.90;;;;;;5085105;28;19947;-59
2021/07/28 16:36:41;;;;;;;;;;;22.80;99.90;;;;;;5087967;28;19931;-60
2021/07/28 16:39:31;;;;;;;;;;;22.90;99.90;;;;;;5085947;28;19966;-58
2021/07/28 16:42:19;;;;;;;;;;;22.70;99.90;;;;;;5084537;28;19932;-59
2021/07/28 16:45:08;;;;;;;;;;;22.70;99.90;;;;;;5087585;27;19925;-59
2021/07/28 16:47:57;;;;;;;;;;;22.90;99.90;;;;;;5084824;28;20321;-60
2021/07/28 16:50:47;;;;;;;;;;;22.60;99.90;;;;;;5085809;28;20054;-60
2021/07/28 16:53:36;;;;;;;;;;;22.50;99.90;;;;;;5086030;28;19928;-62